Terminal Aerodrome Forecast
Issued by NWS

Home | Current Version | Previous Version | Text Only | Print | Product List | Glossary On
Versions: 1 2 3 4 5 6 7 8 9 10 11 12 13 14 15 16 17 18 19 20 21 22 23 24 25
521
FTUS46 KSEW 270901 AAB
TAFHQM
TAF AMD
KHQM 270901Z 2709/2806 26006KT P6SM OVC008
      TEMPO 2709/2712 OVC004
     FM271200 26012KT P6SM VCSH BKN010 BKN030
     FM271500 27007KT P6SM VCSH BKN015 BKN040
     FM271800 30010KT P6SM SCT020 BKN040
     FM272200 32008KT P6SM SCT040
     FM280400 30006KT P6SM BKN030=

USA.gov is the U.S. government's official web portal to all federal, state and local government web resources and services.